sensor_id;sensor_type;location;lat;lon;timestamp;P1;durP1;ratioP1;P2;durP2;ratioP2
14876;SDS011;22152;48.158;17.118;2023-02-26T00:01:21;6.68;;;4.65;;
14876;SDS011;22152;48.158;17.118;2023-02-26T00:03:51;10.15;;;4.65;;
14876;SDS011;22152;48.158;17.118;2023-02-26T00:06:19;6.93;;;4.00;;
14876;SDS011;22152;48.158;17.118;2023-02-26T00:08:46;6.35;;;4.50;;
14876;SDS011;22152;48.158;17.118;2023-02-26T00:11:12;6.93;;;4.68;;
14876;SDS011;22152;48.158;17.118;2023-02-26T00:13:38;9.45;;;4.57;;
14876;SDS011;22152;48.158;17.118;2023-02-26T00:18:54;5.63;;;3.97;;
14876;SDS011;22152;48.158;17.118;2023-02-26T00:21:26;6.70;;;4.50;;
14876;SDS011;22152;48.158;17.118;2023-02-26T00:23:54;10.85;;;5.22;;
14876;SDS011;22152;48.158;17.118;2023-02-26T00:26:21;7.57;;;5.18;;
14876;SDS011;22152;48.158;17.118;2023-02-26T00:28:48;6.00;;;4.65;;
14876;SDS011;22152;48.158;17.118;2023-02-26T00:31:14;9.80;;;5.28;;
14876;SDS011;22152;48.158;17.118;2023-02-26T00:33:42;7.53;;;5.25;;
14876;SDS011;22152;48.158;17.118;2023-02-26T00:36:14;8.23;;;4.63;;
14876;SDS011;22152;48.158;17.118;2023-02-26T00:42:10;6.35;;;4.20;;
14876;SDS011;22152;48.158;17.118;2023-02-26T00:44:37;7.55;;;4.53;;
14876;SDS011;22152;48.158;17.118;2023-02-26T00:47:20;11.85;;;5.38;;
14876;SDS011;22152;48.158;17.118;2023-02-26T00:55:39;10.80;;;6.03;;
14876;SDS011;22152;48.158;17.118;2023-02-26T00:58:04;8.93;;;5.28;;
14876;SDS011;22152;48.158;17.118;2023-02-26T01:00:31;9.63;;;5.07;;
14876;SDS011;22152;48.158;17.118;2023-02-26T01:02:57;7.18;;;4.78;;
14876;SDS011;22152;48.158;17.118;2023-02-26T01:05:23;8.48;;;5.25;;
14876;SDS011;22152;48.158;17.118;2023-02-26T01:08:10;8.18;;;5.13;;
14876;SDS011;22152;48.158;17.118;2023-02-26T01:10:57;9.02;;;5.13;;
14876;SDS011;22152;48.158;17.118;2023-02-26T01:13:23;10.05;;;5.80;;
14876;SDS011;22152;48.158;17.118;2023-02-26T01:15:51;6.60;;;5.05;;
14876;SDS011;22152;48.158;17.118;2023-02-26T01:18:25;9.85;;;5.75;;
14876;SDS011;22152;48.158;17.118;2023-02-26T01:21:01;6.75;;;4.75;;
14876;SDS011;22152;48.158;17.118;2023-02-26T01:23:30;7.43;;;5.32;;
14876;SDS011;22152;48.158;17.118;2023-02-26T01:26:06;7.32;;;5.25;;
14876;SDS011;22152;48.158;17.118;2023-02-26T01:28:40;8.23;;;5.50;;
14876;SDS011;22152;48.158;17.118;2023-02-26T01:31:10;7.32;;;5.32;;
14876;SDS011;22152;48.158;17.118;2023-02-26T01:33:55;9.02;;;5.20;;
14876;SDS011;22152;48.158;17.118;2023-02-26T01:36:55;10.00;;;5.43;;
14876;SDS011;22152;48.158;17.118;2023-02-26T01:39:36;7.78;;;5.43;;
14876;SDS011;22152;48.158;17.118;2023-02-26T01:42:14;9.32;;;4.97;;
14876;SDS011;22152;48.158;17.118;2023-02-26T01:44:49;6.53;;;4.80;;
14876;SDS011;22152;48.158;17.118;2023-02-26T01:50:13;6.10;;;4.55;;
14876;SDS011;22152;48.158;17.118;2023-02-26T01:55:15;6.20;;;4.13;;
14876;SDS011;22152;48.158;17.118;2023-02-26T01:57:47;5.97;;;3.97;;
14876;SDS011;22152;48.158;17.118;2023-02-26T02:00:15;7.85;;;4.47;;
14876;SDS011;22152;48.158;17.118;2023-02-26T02:02:41;6.15;;;3.80;;
14876;SDS011;22152;48.158;17.118;2023-02-26T02:05:11;5.63;;;3.88;;
14876;SDS011;22152;48.158;17.118;2023-02-26T02:07:45;4.65;;;3.80;;
14876;SDS011;22152;48.158;17.118;2023-02-26T02:10:11;5.25;;;4.15;;
14876;SDS011;22152;48.158;17.118;2023-02-26T02:12:46;7.53;;;4.32;;
14876;SDS011;22152;48.158;17.118;2023-02-26T02:15:30;7.25;;;4.28;;
14876;SDS011;22152;48.158;17.118;2023-02-26T02:18:21;5.72;;;3.70;;
14876;SDS011;22152;48.158;17.118;2023-02-26T02:23:46;4.88;;;3.65;;
14876;SDS011;22152;48.158;17.118;2023-02-26T02:29:32;5.38;;;3.63;;
14876;SDS011;22152;48.158;17.118;2023-02-26T02:37:58;5.18;;;3.63;;
14876;SDS011;22152;48.158;17.118;2023-02-26T02:40:32;6.03;;;3.80;;
14876;SDS011;22152;48.158;17.118;2023-02-26T02:43:07;5.05;;;3.35;;
14876;SDS011;22152;48.158;17.118;2023-02-26T02:48:30;4.10;;;3.42;;
14876;SDS011;22152;48.158;17.118;2023-02-26T02:53:46;4.95;;;3.75;;
14876;SDS011;22152;48.158;17.118;2023-02-26T02:56:19;5.03;;;3.63;;
14876;SDS011;22152;48.158;17.118;2023-02-26T02:58:51;3.33;;;2.92;;
14876;SDS011;22152;48.158;17.118;2023-02-26T03:01:28;4.78;;;3.20;;
14876;SDS011;22152;48.158;17.118;2023-02-26T03:03:57;4.78;;;3.90;;
14876;SDS011;22152;48.158;17.118;2023-02-26T03:06:30;4.75;;;3.42;;
14876;SDS011;22152;48.158;17.118;2023-02-26T03:08:56;5.43;;;3.28;;
14876;SDS011;22152;48.158;17.118;2023-02-26T03:11:25;5.10;;;3.80;;
14876;SDS011;22152;48.158;17.118;2023-02-26T03:13:51;4.80;;;3.40;;
14876;SDS011;22152;48.158;17.118;2023-02-26T03:25:20;4.65;;;3.58;;
14876;SDS011;22152;48.158;17.118;2023-02-26T03:33:32;4.97;;;3.72;;
14876;SDS011;22152;48.158;17.118;2023-02-26T03:36:23;4.47;;;3.42;;
14876;SDS011;22152;48.158;17.118;2023-02-26T03:44:31;6.60;;;3.92;;
14876;SDS011;22152;48.158;17.118;2023-02-26T03:47:04;5.83;;;4.47;;
14876;SDS011;22152;48.158;17.118;2023-02-26T03:49:40;5.20;;;4.00;;
14876;SDS011;22152;48.158;17.118;2023-02-26T03:52:15;5.70;;;3.80;;
14876;SDS011;22152;48.158;17.118;2023-02-26T03:57:59;6.43;;;3.50;;
14876;SDS011;22152;48.158;17.118;2023-02-26T04:00:42;4.78;;;3.72;;
14876;SDS011;22152;48.158;17.118;2023-02-26T04:06:17;5.75;;;3.92;;
14876;SDS011;22152;48.158;17.118;2023-02-26T04:08:44;5.07;;;4.10;;
14876;SDS011;22152;48.158;17.118;2023-02-26T04:11:12;4.55;;;3.67;;
14876;SDS011;22152;48.158;17.118;2023-02-26T04:13:43;3.70;;;3.20;;
14876;SDS011;22152;48.158;17.118;2023-02-26T04:16:09;3.67;;;3.30;;
14876;SDS011;22152;48.158;17.118;2023-02-26T04:18:36;4.93;;;3.67;;
14876;SDS011;22152;48.158;17.118;2023-02-26T04:21:04;4.75;;;3.75;;
14876;SDS011;22152;48.158;17.118;2023-02-26T04:23:30;4.60;;;3.40;;
14876;SDS011;22152;48.158;17.118;2023-02-26T04:25:57;4.88;;;3.67;;
14876;SDS011;22152;48.158;17.118;2023-02-26T04:28:23;3.55;;;3.13;;
14876;SDS011;22152;48.158;17.118;2023-02-26T04:30:49;4.07;;;3.35;;
14876;SDS011;22152;48.158;17.118;2023-02-26T04:33:15;3.95;;;3.33;;
14876;SDS011;22152;48.158;17.118;2023-02-26T04:35:41;3.78;;;3.33;;
14876;SDS011;22152;48.158;17.118;2023-02-26T04:38:07;3.88;;;3.40;;
14876;SDS011;22152;48.158;17.118;2023-02-26T04:40:34;3.92;;;3.20;;
14876;SDS011;22152;48.158;17.118;2023-02-26T04:43:00;4.43;;;3.28;;
14876;SDS011;22152;48.158;17.118;2023-02-26T04:45:31;3.88;;;3.08;;
14876;SDS011;22152;48.158;17.118;2023-02-26T04:47:56;3.78;;;2.88;;
14876;SDS011;22152;48.158;17.118;2023-02-26T04:50:22;3.28;;;2.95;;
14876;SDS011;22152;48.158;17.118;2023-02-26T04:52:51;3.35;;;3.05;;
14876;SDS011;22152;48.158;17.118;2023-02-26T04:55:17;4.05;;;3.65;;
14876;SDS011;22152;48.158;17.118;2023-02-26T04:57:43;4.30;;;3.20;;
14876;SDS011;22152;48.158;17.118;2023-02-26T05:00:09;3.92;;;3.40;;
14876;SDS011;22152;48.158;17.118;2023-02-26T05:02:38;5.72;;;3.53;;
14876;SDS011;22152;48.158;17.118;2023-02-26T05:05:03;3.97;;;3.35;;
14876;SDS011;22152;48.158;17.118;2023-02-26T05:07:29;4.18;;;3.28;;
14876;SDS011;22152;48.158;17.118;2023-02-26T05:09:55;5.72;;;3.22;;
14876;SDS011;22152;48.158;17.118;2023-02-26T05:12:21;4.10;;;3.50;;
14876;SDS011;22152;48.158;17.118;2023-02-26T05:14:47;5.22;;;3.80;;
14876;SDS011;22152;48.158;17.118;2023-02-26T05:17:13;4.57;;;3.67;;
14876;SDS011;22152;48.158;17.118;2023-02-26T05:19:38;5.53;;;4.10;;
14876;SDS011;22152;48.158;17.118;2023-02-26T05:22:04;4.65;;;3.90;;
14876;SDS011;22152;48.158;17.118;2023-02-26T05:24:30;5.38;;;4.22;;
14876;SDS011;22152;48.158;17.118;2023-02-26T05:26:56;6.00;;;4.63;;
14876;SDS011;22152;48.158;17.118;2023-02-26T05:29:22;5.18;;;3.90;;
14876;SDS011;22152;48.158;17.118;2023-02-26T05:31:48;6.32;;;4.43;;
14876;SDS011;22152;48.158;17.118;2023-02-26T05:34:14;5.28;;;4.22;;
14876;SDS011;22152;48.158;17.118;2023-02-26T05:36:40;4.97;;;4.43;;
14876;SDS011;22152;48.158;17.118;2023-02-26T05:39:07;6.93;;;5.03;;
14876;SDS011;22152;48.158;17.118;2023-02-26T05:41:34;7.25;;;5.00;;
14876;SDS011;22152;48.158;17.118;2023-02-26T05:44:00;6.85;;;4.50;;
14876;SDS011;22152;48.158;17.118;2023-02-26T05:46:26;8.45;;;5.85;;
14876;SDS011;22152;48.158;17.118;2023-02-26T05:48:52;8.65;;;5.55;;
14876;SDS011;22152;48.158;17.118;2023-02-26T05:51:18;5.78;;;5.13;;
14876;SDS011;22152;48.158;17.118;2023-02-26T05:53:44;8.23;;;5.80;;
14876;SDS011;22152;48.158;17.118;2023-02-26T05:56:10;6.93;;;5.63;;
14876;SDS011;22152;48.158;17.118;2023-02-26T05:58:36;7.97;;;5.70;;
14876;SDS011;22152;48.158;17.118;2023-02-26T06:01:02;8.18;;;5.97;;
14876;SDS011;22152;48.158;17.118;2023-02-26T06:03:28;7.57;;;5.40;;
14876;SDS011;22152;48.158;17.118;2023-02-26T06:05:54;6.50;;;4.95;;
14876;SDS011;22152;48.158;17.118;2023-02-26T06:08:20;6.82;;;5.82;;
14876;SDS011;22152;48.158;17.118;2023-02-26T06:10:46;6.82;;;5.15;;
14876;SDS011;22152;48.158;17.118;2023-02-26T06:13:11;11.30;;;5.47;;
14876;SDS011;22152;48.158;17.118;2023-02-26T06:15:37;8.48;;;5.15;;
14876;SDS011;22152;48.158;17.118;2023-02-26T06:18:03;6.45;;;4.68;;
14876;SDS011;22152;48.158;17.118;2023-02-26T06:20:29;5.85;;;4.95;;
14876;SDS011;22152;48.158;17.118;2023-02-26T06:22:55;5.60;;;4.43;;
14876;SDS011;22152;48.158;17.118;2023-02-26T06:25:21;5.90;;;4.38;;
14876;SDS011;22152;48.158;17.118;2023-02-26T06:27:46;5.20;;;4.22;;
14876;SDS011;22152;48.158;17.118;2023-02-26T06:30:12;6.15;;;4.60;;
14876;SDS011;22152;48.158;17.118;2023-02-26T06:32:38;5.93;;;4.72;;
14876;SDS011;22152;48.158;17.118;2023-02-26T06:35:04;7.20;;;4.20;;
14876;SDS011;22152;48.158;17.118;2023-02-26T06:37:31;5.63;;;4.30;;
14876;SDS011;22152;48.158;17.118;2023-02-26T06:39:56;4.80;;;4.20;;
14876;SDS011;22152;48.158;17.118;2023-02-26T06:42:22;4.82;;;4.05;;
14876;SDS011;22152;48.158;17.118;2023-02-26T06:44:48;5.50;;;4.03;;
14876;SDS011;22152;48.158;17.118;2023-02-26T06:47:14;5.80;;;4.65;;
14876;SDS011;22152;48.158;17.118;2023-02-26T06:49:40;6.03;;;4.55;;
14876;SDS011;22152;48.158;17.118;2023-02-26T06:52:06;5.65;;;4.43;;
14876;SDS011;22152;48.158;17.118;2023-02-26T06:54:31;5.35;;;4.10;;
14876;SDS011;22152;48.158;17.118;2023-02-26T06:56:57;5.85;;;4.13;;
14876;SDS011;22152;48.158;17.118;2023-02-26T06:59:24;5.53;;;3.90;;
14876;SDS011;22152;48.158;17.118;2023-02-26T07:01:50;5.63;;;4.38;;
14876;SDS011;22152;48.158;17.118;2023-02-26T07:04:16;7.82;;;4.22;;
14876;SDS011;22152;48.158;17.118;2023-02-26T07:06:42;7.90;;;3.97;;
14876;SDS011;22152;48.158;17.118;2023-02-26T07:09:07;6.85;;;4.22;;
14876;SDS011;22152;48.158;17.118;2023-02-26T07:11:33;5.57;;;3.85;;
14876;SDS011;22152;48.158;17.118;2023-02-26T07:13:59;4.63;;;3.47;;
14876;SDS011;22152;48.158;17.118;2023-02-26T07:16:25;4.75;;;3.85;;
14876;SDS011;22152;48.158;17.118;2023-02-26T07:18:51;4.63;;;3.60;;
14876;SDS011;22152;48.158;17.118;2023-02-26T07:21:17;6.00;;;4.32;;
14876;SDS011;22152;48.158;17.118;2023-02-26T07:23:43;4.30;;;3.60;;
14876;SDS011;22152;48.158;17.118;2023-02-26T07:26:08;5.18;;;3.78;;
14876;SDS011;22152;48.158;17.118;2023-02-26T07:28:34;6.05;;;4.57;;
14876;SDS011;22152;48.158;17.118;2023-02-26T07:31:00;6.22;;;3.85;;
14876;SDS011;22152;48.158;17.118;2023-02-26T07:33:26;5.93;;;4.22;;
14876;SDS011;22152;48.158;17.118;2023-02-26T07:35:52;6.45;;;4.55;;
14876;SDS011;22152;48.158;17.118;2023-02-26T07:38:19;5.15;;;4.25;;
14876;SDS011;22152;48.158;17.118;2023-02-26T07:40:45;4.88;;;3.88;;
14876;SDS011;22152;48.158;17.118;2023-02-26T07:43:11;4.90;;;4.38;;
14876;SDS011;22152;48.158;17.118;2023-02-26T07:45:37;5.07;;;3.80;;
14876;SDS011;22152;48.158;17.118;2023-02-26T07:48:03;5.03;;;4.13;;
14876;SDS011;22152;48.158;17.118;2023-02-26T07:50:29;5.03;;;4.10;;
14876;SDS011;22152;48.158;17.118;2023-02-26T07:52:55;6.95;;;4.30;;
14876;SDS011;22152;48.158;17.118;2023-02-26T07:55:21;4.72;;;3.50;;
14876;SDS011;22152;48.158;17.118;2023-02-26T07:57:47;7.43;;;4.43;;
14876;SDS011;22152;48.158;17.118;2023-02-26T08:00:13;4.82;;;4.10;;
14876;SDS011;22152;48.158;17.118;2023-02-26T08:02:39;4.97;;;3.88;;
14876;SDS011;22152;48.158;17.118;2023-02-26T08:05:05;4.82;;;3.75;;
14876;SDS011;22152;48.158;17.118;2023-02-26T08:07:32;5.07;;;4.22;;
14876;SDS011;22152;48.158;17.118;2023-02-26T08:09:57;6.90;;;4.70;;
14876;SDS011;22152;48.158;17.118;2023-02-26T08:12:23;6.70;;;4.18;;
14876;SDS011;22152;48.158;17.118;2023-02-26T08:14:49;6.20;;;4.22;;
14876;SDS011;22152;48.158;17.118;2023-02-26T08:17:15;4.82;;;4.10;;
14876;SDS011;22152;48.158;17.118;2023-02-26T08:19:41;6.70;;;4.57;;
14876;SDS011;22152;48.158;17.118;2023-02-26T08:22:07;5.60;;;3.88;;
14876;SDS011;22152;48.158;17.118;2023-02-26T08:24:32;4.72;;;3.88;;
14876;SDS011;22152;48.158;17.118;2023-02-26T08:26:58;5.35;;;3.70;;
14876;SDS011;22152;48.158;17.118;2023-02-26T08:29:24;6.70;;;3.60;;
14876;SDS011;22152;48.158;17.118;2023-02-26T08:31:50;4.32;;;3.47;;
14876;SDS011;22152;48.158;17.118;2023-02-26T08:34:16;5.07;;;3.42;;
14876;SDS011;22152;48.158;17.118;2023-02-26T08:36:42;5.78;;;3.45;;
14876;SDS011;22152;48.158;17.118;2023-02-26T08:39:08;5.20;;;3.70;;
14876;SDS011;22152;48.158;17.118;2023-02-26T08:41:34;4.82;;;3.22;;
14876;SDS011;22152;48.158;17.118;2023-02-26T08:44:01;6.18;;;3.00;;
14876;SDS011;22152;48.158;17.118;2023-02-26T08:46:27;4.57;;;3.30;;
14876;SDS011;22152;48.158;17.118;2023-02-26T08:48:53;8.43;;;4.18;;
14876;SDS011;22152;48.158;17.118;2023-02-26T08:51:22;5.70;;;3.65;;
14876;SDS011;22152;48.158;17.118;2023-02-26T08:53:47;4.20;;;3.17;;
14876;SDS011;22152;48.158;17.118;2023-02-26T08:56:14;4.60;;;3.60;;
14876;SDS011;22152;48.158;17.118;2023-02-26T08:58:41;6.53;;;3.20;;
14876;SDS011;22152;48.158;17.118;2023-02-26T09:01:07;5.68;;;4.15;;
14876;SDS011;22152;48.158;17.118;2023-02-26T09:03:34;4.63;;;3.03;;
14876;SDS011;22152;48.158;17.118;2023-02-26T09:06:00;4.22;;;2.70;;
14876;SDS011;22152;48.158;17.118;2023-02-26T09:08:28;6.25;;;2.60;;
14876;SDS011;22152;48.158;17.118;2023-02-26T09:10:58;3.97;;;2.65;;
14876;SDS011;22152;48.158;17.118;2023-02-26T09:13:26;4.28;;;2.50;;
14876;SDS011;22152;48.158;17.118;2023-02-26T09:15:52;5.60;;;2.90;;
14876;SDS011;22152;48.158;17.118;2023-02-26T09:18:18;5.43;;;2.65;;
14876;SDS011;22152;48.158;17.118;2023-02-26T09:20:44;3.95;;;2.35;;
14876;SDS011;22152;48.158;17.118;2023-02-26T09:23:10;5.35;;;2.33;;
14876;SDS011;22152;48.158;17.118;2023-02-26T09:25:36;3.65;;;2.10;;
14876;SDS011;22152;48.158;17.118;2023-02-26T09:28:02;2.88;;;2.22;;
14876;SDS011;22152;48.158;17.118;2023-02-26T09:30:29;3.47;;;2.30;;
14876;SDS011;22152;48.158;17.118;2023-02-26T09:32:55;3.70;;;2.40;;
14876;SDS011;22152;48.158;17.118;2023-02-26T09:35:21;4.22;;;2.22;;
14876;SDS011;22152;48.158;17.118;2023-02-26T09:37:47;4.40;;;2.10;;
14876;SDS011;22152;48.158;17.118;2023-02-26T09:40:20;3.50;;;2.05;;
14876;SDS011;22152;48.158;17.118;2023-02-26T09:45:32;3.10;;;2.17;;
14876;SDS011;22152;48.158;17.118;2023-02-26T09:48:03;2.42;;;2.17;;
14876;SDS011;22152;48.158;17.118;2023-02-26T09:50:37;3.95;;;2.47;;
14876;SDS011;22152;48.158;17.118;2023-02-26T09:55:52;3.40;;;2.05;;
14876;SDS011;22152;48.158;17.118;2023-02-26T09:58:28;3.38;;;2.33;;
14876;SDS011;22152;48.158;17.118;2023-02-26T10:01:12;3.50;;;1.80;;
14876;SDS011;22152;48.158;17.118;2023-02-26T10:12:19;3.00;;;1.98;;
14876;SDS011;22152;48.158;17.118;2023-02-26T10:14:56;3.45;;;2.50;;
14876;SDS011;22152;48.158;17.118;2023-02-26T10:17:51;4.78;;;2.13;;
14876;SDS011;22152;48.158;17.118;2023-02-26T10:20:33;3.00;;;2.03;;
14876;SDS011;22152;48.158;17.118;2023-02-26T10:23:25;2.88;;;1.60;;
14876;SDS011;22152;48.158;17.118;2023-02-26T10:26:12;3.28;;;1.98;;
14876;SDS011;22152;48.158;17.118;2023-02-26T10:28:53;1.55;;;1.20;;
14876;SDS011;22152;48.158;17.118;2023-02-26T10:31:26;3.13;;;1.45;;
14876;SDS011;22152;48.158;17.118;2023-02-26T10:37:12;2.05;;;1.67;;
14876;SDS011;22152;48.158;17.118;2023-02-26T10:42:44;3.67;;;1.50;;
14876;SDS011;22152;48.158;17.118;2023-02-26T10:52:16;5.25;;;1.75;;
14876;SDS011;22152;48.158;17.118;2023-02-26T10:55:04;3.83;;;1.85;;
14876;SDS011;22152;48.158;17.118;2023-02-26T10:57:33;4.43;;;1.65;;
14876;SDS011;22152;48.158;17.118;2023-02-26T11:00:05;4.75;;;2.13;;
14876;SDS011;22152;48.158;17.118;2023-02-26T11:02:37;3.05;;;1.58;;
14876;SDS011;22152;48.158;17.118;2023-02-26T11:05:14;2.17;;;1.70;;
14876;SDS011;22152;48.158;17.118;2023-02-26T11:07:53;3.30;;;1.73;;
14876;SDS011;22152;48.158;17.118;2023-02-26T11:10:27;2.55;;;1.60;;
14876;SDS011;22152;48.158;17.118;2023-02-26T11:13:27;3.25;;;1.25;;
14876;SDS011;22152;48.158;17.118;2023-02-26T11:15:56;3.35;;;1.50;;
14876;SDS011;22152;48.158;17.118;2023-02-26T11:18:28;4.15;;;1.77;;
14876;SDS011;22152;48.158;17.118;2023-02-26T11:21:06;3.42;;;1.17;;
14876;SDS011;22152;48.158;17.118;2023-02-26T11:23:42;2.20;;;1.10;;
14876;SDS011;22152;48.158;17.118;2023-02-26T11:26:15;3.78;;;1.30;;
14876;SDS011;22152;48.158;17.118;2023-02-26T11:28:44;5.18;;;1.60;;
14876;SDS011;22152;48.158;17.118;2023-02-26T11:31:17;2.05;;;1.23;;
14876;SDS011;22152;48.158;17.118;2023-02-26T11:33:49;2.50;;;1.63;;
14876;SDS011;22152;48.158;17.118;2023-02-26T11:36:38;3.97;;;1.95;;
14876;SDS011;22152;48.158;17.118;2023-02-26T11:39:14;5.22;;;2.67;;
14876;SDS011;22152;48.158;17.118;2023-02-26T11:41:44;3.58;;;2.25;;
14876;SDS011;22152;48.158;17.118;2023-02-26T11:44:14;4.95;;;2.15;;
14876;SDS011;22152;48.158;17.118;2023-02-26T11:46:47;4.45;;;2.20;;
14876;SDS011;22152;48.158;17.118;2023-02-26T11:49:22;4.97;;;2.25;;
14876;SDS011;22152;48.158;17.118;2023-02-26T11:54:36;4.82;;;2.95;;
14876;SDS011;22152;48.158;17.118;2023-02-26T11:57:12;4.93;;;2.25;;
14876;SDS011;22152;48.158;17.118;2023-02-26T11:59:52;2.80;;;1.90;;
14876;SDS011;22152;48.158;17.118;2023-02-26T12:02:21;7.72;;;2.25;;
14876;SDS011;22152;48.158;17.118;2023-02-26T12:04:58;3.78;;;1.77;;
14876;SDS011;22152;48.158;17.118;2023-02-26T12:07:27;4.15;;;1.50;;
14876;SDS011;22152;48.158;17.118;2023-02-26T12:09:55;3.13;;;1.52;;
14876;SDS011;22152;48.158;17.118;2023-02-26T12:14:51;2.38;;;1.35;;
14876;SDS011;22152;48.158;17.118;2023-02-26T12:17:54;2.42;;;1.40;;
14876;SDS011;22152;48.158;17.118;2023-02-26T12:26:38;2.97;;;1.70;;
14876;SDS011;22152;48.158;17.118;2023-02-26T12:29:37;3.63;;;1.70;;
14876;SDS011;22152;48.158;17.118;2023-02-26T12:32:28;4.68;;;1.70;;
14876;SDS011;22152;48.158;17.118;2023-02-26T12:35:09;4.72;;;1.70;;
14876;SDS011;22152;48.158;17.118;2023-02-26T12:55:16;2.55;;;1.40;;
14876;SDS011;22152;48.158;17.118;2023-02-26T13:22:23;2.58;;;1.80;;
14876;SDS011;22152;48.158;17.118;2023-02-26T13:25:19;2.08;;;1.70;;
14876;SDS011;22152;48.158;17.118;2023-02-26T13:27:46;2.65;;;1.58;;
14876;SDS011;22152;48.158;17.118;2023-02-26T13:32:52;1.80;;;1.50;;
14876;SDS011;22152;48.158;17.118;2023-02-26T13:35:32;4.38;;;2.15;;
14876;SDS011;22152;48.158;17.118;2023-02-26T13:38:06;4.03;;;2.38;;
14876;SDS011;22152;48.158;17.118;2023-02-26T13:43:47;5.43;;;2.13;;
14876;SDS011;22152;48.158;17.118;2023-02-26T13:49:53;4.32;;;2.15;;
14876;SDS011;22152;48.158;17.118;2023-02-26T13:53:03;3.15;;;2.00;;
14876;SDS011;22152;48.158;17.118;2023-02-26T13:55:53;3.00;;;2.33;;
14876;SDS011;22152;48.158;17.118;2023-02-26T13:58:38;3.20;;;2.20;;
14876;SDS011;22152;48.158;17.118;2023-02-26T14:01:08;4.43;;;2.28;;
14876;SDS011;22152;48.158;17.118;2023-02-26T14:04:04;3.72;;;2.70;;
14876;SDS011;22152;48.158;17.118;2023-02-26T14:06:40;8.38;;;2.33;;
14876;SDS011;22152;48.158;17.118;2023-02-26T14:25:25;4.78;;;2.80;;
14876;SDS011;22152;48.158;17.118;2023-02-26T14:30:50;5.20;;;2.78;;
14876;SDS011;22152;48.158;17.118;2023-02-26T14:33:30;3.55;;;1.92;;
14876;SDS011;22152;48.158;17.118;2023-02-26T14:36:05;4.07;;;2.40;;
14876;SDS011;22152;48.158;17.118;2023-02-26T14:38:43;3.88;;;2.08;;
14876;SDS011;22152;48.158;17.118;2023-02-26T14:41:31;4.38;;;2.03;;
14876;SDS011;22152;48.158;17.118;2023-02-26T14:44:13;4.35;;;2.30;;
14876;SDS011;22152;48.158;17.118;2023-02-26T14:46:45;2.90;;;2.13;;
14876;SDS011;22152;48.158;17.118;2023-02-26T14:49:17;3.45;;;2.00;;
14876;SDS011;22152;48.158;17.118;2023-02-26T14:52:44;5.25;;;2.28;;
14876;SDS011;22152;48.158;17.118;2023-02-26T14:58:21;3.35;;;2.00;;
14876;SDS011;22152;48.158;17.118;2023-02-26T15:04:04;2.25;;;1.60;;
14876;SDS011;22152;48.158;17.118;2023-02-26T15:07:10;3.03;;;1.38;;
14876;SDS011;22152;48.158;17.118;2023-02-26T15:12:55;3.03;;;1.52;;
14876;SDS011;22152;48.158;17.118;2023-02-26T15:21:33;2.50;;;1.40;;
14876;SDS011;22152;48.158;17.118;2023-02-26T15:24:10;2.63;;;1.55;;
14876;SDS011;22152;48.158;17.118;2023-02-26T15:26:53;2.47;;;1.55;;
14876;SDS011;22152;48.158;17.118;2023-02-26T15:29:28;3.50;;;1.70;;
14876;SDS011;22152;48.158;17.118;2023-02-26T15:32:05;1.52;;;1.20;;
14876;SDS011;22152;48.158;17.118;2023-02-26T15:35:26;1.30;;;1.13;;
14876;SDS011;22152;48.158;17.118;2023-02-26T15:37:50;4.32;;;1.02;;
14876;SDS011;22152;48.158;17.118;2023-02-26T15:40:19;1.88;;;1.10;;
14876;SDS011;22152;48.158;17.118;2023-02-26T15:42:47;2.80;;;0.90;;
14876;SDS011;22152;48.158;17.118;2023-02-26T15:45:19;1.50;;;1.08;;
14876;SDS011;22152;48.158;17.118;2023-02-26T15:47:51;6.63;;;1.70;;
14876;SDS011;22152;48.158;17.118;2023-02-26T15:50:39;2.88;;;1.70;;
14876;SDS011;22152;48.158;17.118;2023-02-26T15:53:15;3.58;;;1.17;;
14876;SDS011;22152;48.158;17.118;2023-02-26T15:55:53;4.07;;;1.98;;
14876;SDS011;22152;48.158;17.118;2023-02-26T15:58:36;2.97;;;1.77;;
14876;SDS011;22152;48.158;17.118;2023-02-26T16:01:13;4.25;;;1.35;;
14876;SDS011;22152;48.158;17.118;2023-02-26T16:03:44;3.55;;;1.58;;
14876;SDS011;22152;48.158;17.118;2023-02-26T16:06:15;4.22;;;1.88;;
14876;SDS011;22152;48.158;17.118;2023-02-26T16:08:45;3.58;;;1.67;;
14876;SDS011;22152;48.158;17.118;2023-02-26T16:11:10;2.65;;;1.75;;
14876;SDS011;22152;48.158;17.118;2023-02-26T16:13:38;2.67;;;1.67;;
14876;SDS011;22152;48.158;17.118;2023-02-26T16:16:09;3.35;;;2.17;;
14876;SDS011;22152;48.158;17.118;2023-02-26T16:18:42;4.15;;;2.05;;
14876;SDS011;22152;48.158;17.118;2023-02-26T16:21:22;3.75;;;2.03;;
14876;SDS011;22152;48.158;17.118;2023-02-26T16:23:59;6.25;;;2.63;;
14876;SDS011;22152;48.158;17.118;2023-02-26T16:29:02;3.85;;;1.98;;
14876;SDS011;22152;48.158;17.118;2023-02-26T16:31:36;4.13;;;2.08;;
14876;SDS011;22152;48.158;17.118;2023-02-26T16:34:27;5.20;;;2.35;;
14876;SDS011;22152;48.158;17.118;2023-02-26T16:42:36;4.65;;;2.15;;
14876;SDS011;22152;48.158;17.118;2023-02-26T16:47:58;4.60;;;2.42;;
14876;SDS011;22152;48.158;17.118;2023-02-26T16:50:28;3.95;;;1.98;;
14876;SDS011;22152;48.158;17.118;2023-02-26T16:52:59;3.55;;;1.65;;
14876;SDS011;22152;48.158;17.118;2023-02-26T16:55:28;3.13;;;2.00;;
14876;SDS011;22152;48.158;17.118;2023-02-26T16:57:58;4.40;;;2.17;;
14876;SDS011;22152;48.158;17.118;2023-02-26T17:00:28;4.10;;;2.13;;
14876;SDS011;22152;48.158;17.118;2023-02-26T17:03:09;4.05;;;1.65;;
14876;SDS011;22152;48.158;17.118;2023-02-26T17:05:58;5.85;;;2.15;;
14876;SDS011;22152;48.158;17.118;2023-02-26T17:08:34;4.25;;;1.90;;
14876;SDS011;22152;48.158;17.118;2023-02-26T17:11:08;3.30;;;1.70;;
14876;SDS011;22152;48.158;17.118;2023-02-26T17:13:44;3.60;;;1.73;;
14876;SDS011;22152;48.158;17.118;2023-02-26T17:16:22;2.90;;;1.90;;
14876;SDS011;22152;48.158;17.118;2023-02-26T17:18:49;3.33;;;1.80;;
14876;SDS011;22152;48.158;17.118;2023-02-26T17:21:15;4.07;;;2.22;;
14876;SDS011;22152;48.158;17.118;2023-02-26T17:23:41;13.50;;;2.40;;
14876;SDS011;22152;48.158;17.118;2023-02-26T17:26:07;5.32;;;2.50;;
14876;SDS011;22152;48.158;17.118;2023-02-26T17:28:39;3.42;;;1.92;;
14876;SDS011;22152;48.158;17.118;2023-02-26T17:31:06;6.10;;;2.20;;
14876;SDS011;22152;48.158;17.118;2023-02-26T17:33:33;4.00;;;2.20;;
14876;SDS011;22152;48.158;17.118;2023-02-26T17:36:01;6.07;;;2.50;;
14876;SDS011;22152;48.158;17.118;2023-02-26T17:38:29;3.85;;;2.13;;
14876;SDS011;22152;48.158;17.118;2023-02-26T17:40:57;6.20;;;2.53;;
14876;SDS011;22152;48.158;17.118;2023-02-26T17:43:23;4.07;;;2.30;;
14876;SDS011;22152;48.158;17.118;2023-02-26T17:45:50;6.05;;;2.60;;
14876;SDS011;22152;48.158;17.118;2023-02-26T17:48:16;3.85;;;2.30;;
14876;SDS011;22152;48.158;17.118;2023-02-26T17:53:15;4.78;;;2.53;;
14876;SDS011;22152;48.158;17.118;2023-02-26T17:55:46;7.68;;;2.20;;
14876;SDS011;22152;48.158;17.118;2023-02-26T17:58:16;5.35;;;2.50;;
14876;SDS011;22152;48.158;17.118;2023-02-26T18:00:48;6.18;;;2.60;;
14876;SDS011;22152;48.158;17.118;2023-02-26T18:03:17;7.47;;;2.85;;
14876;SDS011;22152;48.158;17.118;2023-02-26T18:05:44;4.03;;;2.67;;
14876;SDS011;22152;48.158;17.118;2023-02-26T18:08:20;10.65;;;3.03;;
14876;SDS011;22152;48.158;17.118;2023-02-26T18:10:59;14.93;;;3.60;;
14876;SDS011;22152;48.158;17.118;2023-02-26T18:13:26;5.75;;;3.15;;
14876;SDS011;22152;48.158;17.118;2023-02-26T18:15:54;6.30;;;3.35;;
14876;SDS011;22152;48.158;17.118;2023-02-26T18:18:22;10.20;;;4.25;;